Alford, Florida
Current Conditions -  °F | °C
As of 11:53 AM on Friday 31 Oct 2014 (Local Time) from KMAI Reporting Station
Clear Clear  
Wind Chill: 70°   Ceiling: Unl
Heat Index: 70°   Visibility: 10mi
Dew Point: 40°   Wind: 9mph
Humidity: 33%   Direction: 340°NNW
Pressure: 29.95"   Gusts: NA
Location:  30.69°N, 85.39°W
Report Text: KMAI 311653Z AUTO 34008KT 10SM CLR 21/04 A2995 RMK AO2 SLP139 T02110044 $
Loading
Personal Weather Stations






























Interactive Weather Map
Tropical Storm Tracking
New forecast layout! Learn more

10-Day Weather Forecast

Advertisements
Track Severe Weather on mobile